Terminal Aerodrome Forecast
Issued by NWS

Home | Current Version | Previous Version | Graphics & Text | Print | Product List | Glossary On
Versions: 1 2 3 4 5 6 7 8 9 10 11 12 13 14 15 16 17 18 19
000
FTUS43 KIWX 161700
TAFSBN
TAF
KSBN 161720Z 1618/1718 27010KT 3SM -DZ VCSH OVC006
     FM162000 29015G24KT 6SM BR VCSH BKN007 OVC012
     FM170200 29014G23KT P6SM OVC015
     FM170800 29013G20KT P6SM OVC025=

USA.gov is the U.S. government's official web portal to all federal, state and local government web resources and services.